createdAt,value
2019-03-29T00:00:50.742Z,53.13
2019-03-29T00:03:20.424Z,53.23
2019-03-29T00:05:50.063Z,53.27
2019-03-29T00:08:19.697Z,53.33
2019-03-29T00:10:49.442Z,53.41
2019-03-29T00:13:19.322Z,53.42
2019-03-29T00:15:48.966Z,53.47
2019-03-29T00:18:18.675Z,53.48
2019-03-29T00:20:48.472Z,53.54
2019-03-29T00:23:18.209Z,53.60
2019-03-29T00:25:47.850Z,53.69
2019-03-29T00:28:17.582Z,53.72
2019-03-29T00:30:47.936Z,53.86
2019-03-29T00:33:17.670Z,53.81
2019-03-29T00:35:47.393Z,53.87
2019-03-29T00:38:17.055Z,53.86
2019-03-29T00:40:46.741Z,53.85
2019-03-29T00:43:16.436Z,53.83
2019-03-29T00:45:46.096Z,53.89
2019-03-29T00:48:15.734Z,53.83
2019-03-29T00:50:45.417Z,53.81
2019-03-29T00:53:15.121Z,53.80
2019-03-29T00:55:44.802Z,53.79
2019-03-29T00:58:14.583Z,53.82
2019-03-29T01:00:44.252Z,53.86
2019-03-29T01:03:13.875Z,53.90
2019-03-29T01:05:43.541Z,53.99
2019-03-29T01:08:13.212Z,54.08
2019-03-29T01:10:42.859Z,54.17
2019-03-29T01:13:12.531Z,54.33
2019-03-29T01:15:42.167Z,54.31
2019-03-29T01:18:12.274Z,54.37
2019-03-29T01:20:42.072Z,54.42
2019-03-29T01:23:11.781Z,54.39
2019-03-29T01:25:41.564Z,54.40
2019-03-29T01:28:12.054Z,54.38
2019-03-29T01:30:41.908Z,54.40
2019-03-29T01:33:11.706Z,54.42
2019-03-29T01:35:41.512Z,54.47
2019-03-29T01:38:21.708Z,54.54
2019-03-29T01:40:42.807Z,54.56
2019-03-29T01:43:12.616Z,54.57
2019-03-29T01:45:42.504Z,54.62
2019-03-29T01:48:12.296Z,54.58
2019-03-29T01:50:42.066Z,54.68
2019-03-29T01:53:12.044Z,54.65
2019-03-29T01:55:41.972Z,54.72
2019-03-29T01:58:11.708Z,54.81
2019-03-29T02:00:41.471Z,54.79
2019-03-29T02:03:11.246Z,54.85
2019-03-29T02:05:40.975Z,54.81
2019-03-29T02:08:10.673Z,54.88
2019-03-29T02:10:40.539Z,54.85
2019-03-29T02:13:10.301Z,54.86
2019-03-29T02:15:40.068Z,54.89
2019-03-29T02:18:09.764Z,54.89
2019-03-29T02:20:39.537Z,54.88
2019-03-29T02:23:09.192Z,54.90
2019-03-29T02:25:38.929Z,54.94
2019-03-29T02:28:08.772Z,55.05
2019-03-29T02:30:38.521Z,55.09
2019-03-29T02:33:08.483Z,55.09
2019-03-29T02:35:38.975Z,55.14
2019-03-29T02:38:08.858Z,55.14
2019-03-29T02:40:38.623Z,55.19
2019-03-29T02:43:09.573Z,55.16
2019-03-29T02:45:39.914Z,55.17
2019-03-29T02:48:09.681Z,55.21
2019-03-29T02:50:39.549Z,55.21
2019-03-29T02:53:09.293Z,55.23
2019-03-29T02:55:39.006Z,55.25
2019-03-29T02:58:08.748Z,55.29
2019-03-29T03:00:38.483Z,55.40
2019-03-29T03:03:08.298Z,55.43
2019-03-29T03:05:38.076Z,55.55
2019-03-29T03:08:07.797Z,55.64
2019-03-29T03:10:37.647Z,55.78
2019-03-29T03:13:07.378Z,55.75
2019-03-29T03:15:37.103Z,55.81
2019-03-29T03:18:06.842Z,55.83
2019-03-29T03:20:36.613Z,55.77
2019-03-29T03:23:06.383Z,55.76
2019-03-29T03:25:36.183Z,55.76
2019-03-29T03:28:05.910Z,55.72
2019-03-29T03:30:35.674Z,55.80
2019-03-29T03:33:05.680Z,55.78
2019-03-29T03:35:35.388Z,55.79
2019-03-29T03:38:05.071Z,55.81
2019-03-29T03:40:34.806Z,55.80
2019-03-29T03:43:04.492Z,55.87
2019-03-29T03:45:34.289Z,55.85
2019-03-29T03:48:04.050Z,55.87
2019-03-29T03:50:40.102Z,55.91
2019-03-29T03:53:10.089Z,55.93
2019-03-29T03:55:41.198Z,55.94
2019-03-29T03:58:11.346Z,56.02
2019-03-29T04:00:50.615Z,56.01
2019-03-29T04:03:20.404Z,56.13
2019-03-29T04:05:50.261Z,56.23
2019-03-29T04:08:20.062Z,56.30
2019-03-29T04:10:49.889Z,56.30
2019-03-29T04:13:19.653Z,56.43
2019-03-29T04:15:49.450Z,56.52
2019-03-29T04:18:19.266Z,56.51
2019-03-29T04:20:49.008Z,56.60
2019-03-29T04:23:18.792Z,56.66
2019-03-29T04:25:48.617Z,56.84
2019-03-29T04:28:18.481Z,56.88
2019-03-29T04:30:48.456Z,56.94
2019-03-29T04:33:18.169Z,56.87
2019-03-29T04:35:47.956Z,56.90
2019-03-29T04:38:17.670Z,56.87
2019-03-29T04:40:47.393Z,56.84
2019-03-29T04:43:17.211Z,56.92
2019-03-29T04:45:46.938Z,56.83
2019-03-29T04:48:16.718Z,56.85
2019-03-29T04:50:46.511Z,56.93
2019-03-29T04:53:16.216Z,56.98
2019-03-29T04:55:46.023Z,57.05
2019-03-29T04:58:15.741Z,57.19
2019-03-29T05:00:45.517Z,57.29
2019-03-29T05:03:15.205Z,57.37
2019-03-29T05:05:45.015Z,57.32
2019-03-29T05:08:14.787Z,57.25
2019-03-29T05:10:44.625Z,57.33
2019-03-29T05:13:14.362Z,57.32
2019-03-29T05:15:44.088Z,57.23
2019-03-29T05:18:13.757Z,57.22
2019-03-29T05:20:43.462Z,57.14
2019-03-29T05:23:13.180Z,57.05
2019-03-29T05:25:43.010Z,57.03
2019-03-29T05:28:12.729Z,56.94
2019-03-29T05:30:42.506Z,56.98
2019-03-29T05:33:12.373Z,57.09
2019-03-29T05:35:42.183Z,57.02
2019-03-29T05:38:11.966Z,56.95
2019-03-29T05:40:41.743Z,56.89
2019-03-29T05:43:11.511Z,56.98
2019-03-29T05:45:41.337Z,56.97
2019-03-29T05:48:11.123Z,56.83
2019-03-29T05:50:40.865Z,56.91
2019-03-29T05:53:10.635Z,56.81
2019-03-29T05:55:40.431Z,56.72
2019-03-29T05:58:10.196Z,56.61
2019-03-29T06:00:39.996Z,56.48
2019-03-29T06:03:10.248Z,56.41
2019-03-29T06:05:40.274Z,56.32
2019-03-29T06:08:10.036Z,56.17
2019-03-29T06:10:48.732Z,55.98
2019-03-29T06:13:11.609Z,55.81
2019-03-29T06:15:45.798Z,55.76
2019-03-29T06:18:20.846Z,55.46
2019-03-29T06:20:53.586Z,54.98
2019-03-29T06:23:24.099Z,54.38
2019-03-29T06:25:57.805Z,53.76
2019-03-29T06:28:51.210Z,52.75
2019-03-29T06:31:36.267Z,51.65
2019-03-29T06:34:06.789Z,50.36
2019-03-29T06:36:37.765Z,49.40
2019-03-29T06:39:10.143Z,47.88
2019-03-29T06:41:45.501Z,47.08
2019-03-29T06:44:16.360Z,46.09
2019-03-29T06:46:47.077Z,44.82
2019-03-29T06:49:17.157Z,43.78
2019-03-29T06:51:47.722Z,43.03
2019-03-29T06:54:18.171Z,41.86
2019-03-29T06:56:48.755Z,40.98
2019-03-29T06:59:19.478Z,39.80
2019-03-29T07:01:50.574Z,38.85
2019-03-29T07:04:23.068Z,38.16
2019-03-29T07:06:54.498Z,37.37
2019-03-29T07:09:25.397Z,36.73
2019-03-29T07:11:58.973Z,35.81
2019-03-29T07:17:04.890Z,34.40
2019-03-29T07:19:34.615Z,33.59
2019-03-29T07:22:04.282Z,32.97
2019-03-29T07:24:33.920Z,32.26
2019-03-29T07:27:03.710Z,31.74
2019-03-29T07:29:33.416Z,31.11
2019-03-29T07:32:03.158Z,30.25
2019-03-29T07:34:32.776Z,29.88
2019-03-29T07:37:05.631Z,29.66
2019-03-29T07:39:33.902Z,29.03
2019-03-29T07:42:03.590Z,28.69
2019-03-29T07:44:33.267Z,28.44
2019-03-29T07:47:02.983Z,27.76
2019-03-29T07:49:32.778Z,27.39
2019-03-29T07:52:02.601Z,27.00
2019-03-29T07:54:32.288Z,26.42
2019-03-29T07:57:01.986Z,25.63
2019-03-29T07:59:31.807Z,25.16
2019-03-29T08:02:02.323Z,24.77
2019-03-29T08:04:32.073Z,23.99
2019-03-29T08:07:01.831Z,23.99
2019-03-29T08:09:31.513Z,22.94
2019-03-29T08:12:01.352Z,22.67
2019-03-29T08:14:31.048Z,22.80
2019-03-29T08:17:00.822Z,23.16
2019-03-29T08:19:30.495Z,22.83
2019-03-29T08:22:00.381Z,22.56
2019-03-29T08:24:30.053Z,22.04
2019-03-29T08:26:59.868Z,21.57
2019-03-29T08:29:31.498Z,20.99
2019-03-29T08:32:01.300Z,20.79
2019-03-29T08:34:30.959Z,20.58
2019-03-29T08:37:00.712Z,20.22
2019-03-29T08:39:30.572Z,20.11
2019-03-29T08:42:00.881Z,20.04
2019-03-29T08:44:30.761Z,19.73
2019-03-29T08:47:00.631Z,19.92
2019-03-29T08:49:30.268Z,20.14
2019-03-29T08:51:59.968Z,19.81
2019-03-29T08:54:29.691Z,19.06
2019-03-29T08:57:00.530Z,18.64
2019-03-29T08:59:30.314Z,18.27
2019-03-29T09:02:00.087Z,18.08
2019-03-29T09:04:29.839Z,17.57
2019-03-29T09:06:59.690Z,17.52
2019-03-29T09:09:29.441Z,16.96
2019-03-29T09:12:13.408Z,16.59
2019-03-29T09:14:31.547Z,16.18
2019-03-29T09:17:02.078Z,15.82
2019-03-29T09:19:33.558Z,15.04
2019-03-29T09:22:04.049Z,14.94
2019-03-29T09:24:34.145Z,14.82
2019-03-29T09:27:03.952Z,14.87
2019-03-29T09:29:33.709Z,14.76
2019-03-29T09:32:03.768Z,14.62
2019-03-29T09:34:33.505Z,14.40
2019-03-29T09:37:04.449Z,14.30
2019-03-29T09:39:34.251Z,13.79
2019-03-29T09:42:05.338Z,13.21
2019-03-29T09:44:35.191Z,13.10
2019-03-29T09:47:04.953Z,12.72
2019-03-29T09:49:34.658Z,12.77
2019-03-29T09:52:04.498Z,12.35
2019-03-29T09:54:34.356Z,11.88
2019-03-29T09:57:04.051Z,11.52
2019-03-29T09:59:33.919Z,11.36
2019-03-29T10:02:03.729Z,10.95
2019-03-29T10:04:33.430Z,10.82
2019-03-29T10:07:04.365Z,10.67
2019-03-29T10:09:36.923Z,10.38
2019-03-29T10:12:11.937Z,10.59
2019-03-29T10:14:41.779Z,10.54
2019-03-29T10:17:11.561Z,10.38
2019-03-29T10:19:41.382Z,10.59
2019-03-29T10:22:11.154Z,10.24
2019-03-29T10:24:40.979Z,10.25
2019-03-29T10:27:10.656Z,10.47
2019-03-29T10:29:41.396Z,10.17
2019-03-29T10:32:11.164Z,9.94
2019-03-29T10:34:40.805Z,9.73
2019-03-29T10:37:10.636Z,9.50
2019-03-29T10:39:40.585Z,9.27
2019-03-29T10:42:10.490Z,9.08
2019-03-29T10:44:40.232Z,8.96
2019-03-29T10:47:10.101Z,8.74
2019-03-29T10:49:39.855Z,8.59
2019-03-29T10:52:09.579Z,8.54
2019-03-29T10:54:39.310Z,8.37
2019-03-29T10:57:09.069Z,8.04
2019-03-29T10:59:38.789Z,7.78
2019-03-29T11:02:08.727Z,7.62
2019-03-29T11:04:38.823Z,7.61
2019-03-29T11:07:11.735Z,8.34
2019-03-29T11:09:41.983Z,8.76
2019-03-29T11:12:11.728Z,8.59
2019-03-29T11:14:41.622Z,8.40
2019-03-29T11:17:13.375Z,8.10
2019-03-29T11:19:48.611Z,7.88
2019-03-29T11:22:18.583Z,7.50
2019-03-29T11:24:49.628Z,7.39
2019-03-29T11:27:22.318Z,7.30
2019-03-29T11:29:54.602Z,7.37
2019-03-29T11:32:24.642Z,7.33
2019-03-29T11:34:54.397Z,7.33
2019-03-29T11:37:24.185Z,7.17
2019-03-29T11:39:53.855Z,6.98
2019-03-29T11:42:23.541Z,6.72
2019-03-29T11:44:53.319Z,6.78
2019-03-29T11:47:23.139Z,6.81
2019-03-29T11:49:53.051Z,6.79
2019-03-29T11:52:22.812Z,6.99
2019-03-29T11:54:52.543Z,6.98
2019-03-29T11:57:22.250Z,7.08
2019-03-29T11:59:52.930Z,7.27
2019-03-29T12:02:31.333Z,7.48
2019-03-29T12:04:54.244Z,7.92
2019-03-29T12:07:24.014Z,8.12
2019-03-29T12:09:53.693Z,8.54
2019-03-29T12:12:23.387Z,9.47
2019-03-29T12:14:53.178Z,10.75
2019-03-29T12:17:23.066Z,12.03
2019-03-29T12:19:52.773Z,13.34
2019-03-29T12:22:22.453Z,14.23
2019-03-29T12:24:52.372Z,15.14
2019-03-29T12:27:22.081Z,15.70
2019-03-29T12:29:51.835Z,16.20
2019-03-29T12:32:21.546Z,16.86
2019-03-29T12:34:51.355Z,17.87
2019-03-29T12:37:21.103Z,18.54
2019-03-29T12:39:50.842Z,19.47
2019-03-29T12:42:20.690Z,20.12
2019-03-29T12:44:50.403Z,20.65
2019-03-29T12:47:20.139Z,22.03
2019-03-29T12:49:49.930Z,22.03
2019-03-29T12:52:19.606Z,22.02
2019-03-29T12:54:49.295Z,22.02
2019-03-29T12:57:19.890Z,22.44
2019-03-29T12:59:49.649Z,22.80
2019-03-29T13:02:19.375Z,22.82
2019-03-29T13:04:49.083Z,23.03
2019-03-29T13:07:18.893Z,22.95
2019-03-29T13:09:48.716Z,23.18
2019-03-29T13:12:18.611Z,23.39
2019-03-29T13:14:50.046Z,23.82
2019-03-29T13:17:19.780Z,24.00
2019-03-29T13:19:49.665Z,24.40
2019-03-29T13:22:19.582Z,24.26
2019-03-29T13:24:49.315Z,24.47
2019-03-29T13:27:18.979Z,24.93
2019-03-29T13:29:50.122Z,25.09
2019-03-29T13:32:19.919Z,24.98
2019-03-29T13:34:51.474Z,25.04
2019-03-29T13:37:21.418Z,25.14
2019-03-29T13:39:51.168Z,25.07
2019-03-29T13:42:20.813Z,25.26
2019-03-29T14:07:21.012Z,26.32
2019-03-29T14:09:52.167Z,26.52
2019-03-29T14:12:23.843Z,26.53
2019-03-29T14:14:54.045Z,26.67
2019-03-29T14:17:24.270Z,26.98
2019-03-29T14:19:54.390Z,27.28
2019-03-29T14:22:25.798Z,27.22
2019-03-29T14:24:56.008Z,27.40
2019-03-29T14:27:27.078Z,27.56
2019-03-29T14:30:04.083Z,27.64
2019-03-29T14:32:28.610Z,27.59
2019-03-29T14:34:58.293Z,27.74
2019-03-29T14:37:28.059Z,27.63
2019-03-29T14:39:57.826Z,27.53
2019-03-29T14:42:27.702Z,27.62
2019-03-29T14:44:58.059Z,27.59
2019-03-29T14:47:40.904Z,27.50
2019-03-29T14:49:59.502Z,27.38
2019-03-29T14:57:54.512Z,27.47
2019-03-29T15:00:38.340Z,27.48
2019-03-29T15:03:08.090Z,27.70
2019-03-29T15:05:37.773Z,27.58
2019-03-29T15:08:07.501Z,27.46
2019-03-29T15:10:37.171Z,27.77
2019-03-29T15:13:07.147Z,27.72
2019-03-29T15:15:36.963Z,27.76
2019-03-29T15:18:06.665Z,27.85
2019-03-29T15:20:36.371Z,27.97
2019-03-29T15:23:06.077Z,27.91
2019-03-29T15:25:35.967Z,27.89
2019-03-29T15:28:05.813Z,27.88
2019-03-29T15:30:35.534Z,27.87
2019-03-29T15:33:05.316Z,27.73
2019-03-29T15:35:35.170Z,27.69
2019-03-29T15:38:05.042Z,27.99
2019-03-29T15:40:35.086Z,28.16
2019-03-29T15:43:04.929Z,28.43
2019-03-29T15:45:34.647Z,28.29
2019-03-29T15:48:04.528Z,28.56
2019-03-29T15:50:34.233Z,28.92
2019-03-29T15:53:03.935Z,28.86
2019-03-29T15:55:33.700Z,28.84
2019-03-29T15:58:03.456Z,28.79
2019-03-29T16:00:33.230Z,28.73
2019-03-29T16:03:03.937Z,28.70
2019-03-29T16:05:33.732Z,28.70
2019-03-29T16:08:03.538Z,28.95
2019-03-29T16:10:35.925Z,28.90
2019-03-29T16:13:05.774Z,29.01
2019-03-29T16:15:38.382Z,28.99
2019-03-29T16:18:07.180Z,29.11
2019-03-29T16:20:36.917Z,29.19
2019-03-29T16:23:06.710Z,29.21
2019-03-29T16:25:36.447Z,29.26
2019-03-29T16:28:06.168Z,29.26
2019-03-29T16:30:35.852Z,29.20
2019-03-29T16:33:05.654Z,29.26
2019-03-29T16:35:35.342Z,29.19
2019-03-29T16:41:41.175Z,29.31
2019-03-29T16:44:10.971Z,29.71
2019-03-29T16:46:40.732Z,29.75
2019-03-29T16:49:10.545Z,29.79
2019-03-29T16:51:40.319Z,29.73
2019-03-29T16:54:10.101Z,29.87
2019-03-29T16:56:39.892Z,29.92
2019-03-29T16:59:09.644Z,30.01
2019-03-29T17:01:39.781Z,30.11
2019-03-29T17:04:09.588Z,30.12
2019-03-29T17:06:39.320Z,30.30
2019-03-29T17:09:09.129Z,30.40
2019-03-29T17:11:39.007Z,30.38
2019-03-29T17:14:08.865Z,30.41
2019-03-29T17:16:38.775Z,30.35
2019-03-29T17:19:08.635Z,30.39
2019-03-29T17:21:38.353Z,30.37
2019-03-29T17:24:08.071Z,30.49
2019-03-29T17:26:37.887Z,30.64
2019-03-29T17:29:07.644Z,30.63
2019-03-29T17:31:37.491Z,30.76
2019-03-29T17:34:07.263Z,30.82
2019-03-29T17:36:36.980Z,30.95
2019-03-29T17:39:08.264Z,31.09
2019-03-29T17:41:38.005Z,31.17
2019-03-29T17:44:08.996Z,31.22
2019-03-29T17:46:39.136Z,31.26
2019-03-29T17:49:09.139Z,31.45
2019-03-29T17:51:39.305Z,31.58
2019-03-29T17:54:09.253Z,31.67
2019-03-29T17:56:39.129Z,31.77
2019-03-29T17:59:09.151Z,31.91
2019-03-29T18:01:39.564Z,32.08
2019-03-29T18:04:09.503Z,32.42
2019-03-29T18:06:39.214Z,32.63
2019-03-29T18:09:09.347Z,32.89
2019-03-29T18:11:39.039Z,33.22
2019-03-29T18:14:08.816Z,33.44
2019-03-29T18:16:38.527Z,33.81
2019-03-29T18:19:08.367Z,34.10
2019-03-29T18:21:38.224Z,34.21
2019-03-29T18:24:07.935Z,34.47
2019-03-29T18:26:38.094Z,34.77
2019-03-29T18:29:09.121Z,35.29
2019-03-29T18:31:40.478Z,35.61
2019-03-29T18:34:10.319Z,35.80
2019-03-29T18:36:40.646Z,36.02
2019-03-29T18:39:16.781Z,36.36
2019-03-29T18:41:49.516Z,36.42
2019-03-29T18:44:20.571Z,36.62
2019-03-29T18:46:53.529Z,36.90
2019-03-29T18:49:24.693Z,37.12
2019-03-29T18:51:55.621Z,37.30
2019-03-29T18:54:26.066Z,37.48
2019-03-29T18:56:57.013Z,37.72
2019-03-29T18:59:27.384Z,38.01
2019-03-29T19:01:57.974Z,38.10
2019-03-29T19:04:31.722Z,38.20
2019-03-29T19:07:51.504Z,38.39
2019-03-29T19:48:04.000Z,40.02
2019-03-29T19:50:33.803Z,39.96
2019-03-29T19:53:03.545Z,40.00
2019-03-29T19:55:33.414Z,40.06
2019-03-29T19:58:03.299Z,39.87
2019-03-29T20:00:40.607Z,39.88
2019-03-29T20:03:10.516Z,39.77
2019-03-29T20:05:40.260Z,39.58
2019-03-29T20:08:10.052Z,39.53
2019-03-29T20:10:40.108Z,39.50
2019-03-29T20:13:10.001Z,39.38
2019-03-29T20:15:39.763Z,39.29
2019-03-29T20:18:09.662Z,39.27
2019-03-29T20:20:39.667Z,39.21
2019-03-29T20:23:09.559Z,39.21
2019-03-29T20:25:39.486Z,39.06
2019-03-29T20:28:09.356Z,38.98
2019-03-29T20:30:39.663Z,39.10
2019-03-29T20:33:13.056Z,39.04
2019-03-29T20:35:41.138Z,39.11
2019-03-29T20:38:10.834Z,39.08
2019-03-29T20:40:40.549Z,39.06
2019-03-29T20:43:10.325Z,39.02
2019-03-29T20:45:40.059Z,39.31
2019-03-29T20:48:10.831Z,39.20
2019-03-29T20:50:40.473Z,39.19
2019-03-29T20:53:10.115Z,39.27
2019-03-29T20:55:39.894Z,39.31
2019-03-29T20:58:09.656Z,39.43
2019-03-29T21:00:39.393Z,39.39
2019-03-29T21:03:09.165Z,39.37
2019-03-29T21:05:39.091Z,39.47
2019-03-29T21:08:08.964Z,39.50
2019-03-29T21:10:39.008Z,39.70
2019-03-29T21:13:08.694Z,39.85
2019-03-29T21:15:38.576Z,39.89
2019-03-29T21:18:08.337Z,39.99
2019-03-29T21:20:38.496Z,40.12
2019-03-29T21:23:08.203Z,40.33
2019-03-29T21:25:38.213Z,40.43
2019-03-29T21:28:07.881Z,40.35
2019-03-29T21:30:37.569Z,40.66
2019-03-29T21:33:07.336Z,41.11
2019-03-29T21:35:37.948Z,41.29
2019-03-29T21:38:07.739Z,41.55
2019-03-29T21:40:37.466Z,41.64
2019-03-29T21:43:07.173Z,41.59
2019-03-29T21:45:36.935Z,41.95
2019-03-29T21:48:27.396Z,42.22
2019-03-29T21:50:38.264Z,42.41
2019-03-29T21:53:08.040Z,42.50
2019-03-29T21:55:37.761Z,42.64
2019-03-29T21:58:07.531Z,42.56
2019-03-29T22:00:37.241Z,42.36
2019-03-29T22:03:06.984Z,42.26
2019-03-29T22:05:36.640Z,42.37
2019-03-29T22:08:06.412Z,42.39
2019-03-29T22:10:36.108Z,42.64
2019-03-29T22:13:05.859Z,42.74
2019-03-29T22:15:35.582Z,42.96
2019-03-29T22:18:06.869Z,43.00
2019-03-29T22:20:42.244Z,43.06
2019-03-29T22:23:11.934Z,43.23
2019-03-29T22:25:41.675Z,43.38
2019-03-29T22:28:11.430Z,43.57
2019-03-29T22:30:43.929Z,44.03
2019-03-29T22:33:13.560Z,44.21
2019-03-29T22:35:43.279Z,44.44
2019-03-29T22:38:12.989Z,44.56
2019-03-29T22:40:42.789Z,44.67
2019-03-29T22:43:12.657Z,44.75
2019-03-29T22:45:42.347Z,44.85
2019-03-29T22:48:12.167Z,45.07
2019-03-29T22:50:41.835Z,45.17
2019-03-29T22:53:11.584Z,45.30
2019-03-29T22:55:41.281Z,45.52
2019-03-29T22:58:10.972Z,45.58
2019-03-29T23:00:42.313Z,45.68
2019-03-29T23:03:14.764Z,45.81
2019-03-29T23:05:44.655Z,46.01
2019-03-29T23:08:14.660Z,46.17
2019-03-29T23:10:44.397Z,46.19
2019-03-29T23:13:14.132Z,46.33
2019-03-29T23:15:43.889Z,46.42
2019-03-29T23:18:13.596Z,46.53
2019-03-29T23:20:43.368Z,46.72
2019-03-29T23:23:13.079Z,46.75
2019-03-29T23:25:42.802Z,46.93
2019-03-29T23:28:12.544Z,46.99
2019-03-29T23:30:42.322Z,47.11
2019-03-29T23:33:12.006Z,47.24
2019-03-29T23:35:41.858Z,47.33
2019-03-29T23:38:11.473Z,47.41
2019-03-29T23:40:41.171Z,47.48
2019-03-29T23:43:10.884Z,47.64
2019-03-29T23:45:40.748Z,47.83
2019-03-29T23:48:10.458Z,47.96
2019-03-29T23:50:40.179Z,48.11
2019-03-29T23:53:09.843Z,48.08
2019-03-29T23:55:39.587Z,48.26
2019-03-29T23:58:09.201Z,48.38
